Time;durP1;ratioP1;P1;durP2;ratioP2;P2;SDS_P1;SDS_P2;PMS_P1;PMS_P2;Temp;Humidity;BMP_temperature;BMP_pressure;BME280_temperature;BME280_humidity;BME280_pressure;Samples;Min_cycle;Max_cycle;Signal;HPM_P1;HPM_P2
2022/06/27 00:00:10;;;;;;;0.20;0.10;;;17.30;99.90;;;;;;4978741;28;94683;-38
2022/06/27 00:02:39;;;;;;;0.20;0.10;;;17.30;99.90;;;;;;4978507;28;96438;-35
2022/06/27 00:05:05;;;;;;;0.20;0.10;;;17.30;99.90;;;;;;4978492;28;95097;-34
2022/06/27 00:07:31;;;;;;;0.20;0.10;;;17.30;99.90;;;;;;4978475;28;92348;-34
2022/06/27 00:09:56;;;;;;;0.32;0.32;;;17.30;99.90;;;;;;4978528;28;94187;-33
2022/06/27 00:12:22;;;;;;;0.60;0.45;;;17.20;99.90;;;;;;4979006;28;94545;-36
2022/06/27 00:14:49;;;;;;;0.60;0.60;;;17.20;99.90;;;;;;4979428;28;93322;-34
2022/06/27 00:17:15;;;;;;;0.22;0.22;;;17.20;99.90;;;;;;4978578;28;94545;-34
2022/06/27 00:19:40;;;;;;;0.20;0.10;;;17.20;99.90;;;;;;4978394;28;95106;-38
2022/06/27 00:22:06;;;;;;;0.20;0.13;;;17.20;99.90;;;;;;4979730;28;94300;-37
2022/06/27 00:24:32;;;;;;;0.20;0.10;;;17.20;99.90;;;;;;4978602;28;94735;-37
2022/06/27 00:26:58;;;;;;;0.20;0.03;;;17.20;99.90;;;;;;4978754;28;93410;-36
2022/06/27 00:29:24;;;;;;;0.20;0.10;;;17.20;99.90;;;;;;4977422;28;95937;-35
2022/06/27 00:31:50;;;;;;;0.20;0.20;;;17.20;99.90;;;;;;4978479;28;95592;-35
2022/06/27 00:34:16;;;;;;;0.28;0.20;;;17.20;99.90;;;;;;4979110;28;93604;-36
2022/06/27 00:36:42;;;;;;;0.35;0.35;;;17.20;99.90;;;;;;4978005;28;92949;-36
2022/06/27 00:39:08;;;;;;;0.35;0.35;;;17.20;99.90;;;;;;4978122;28;94625;-34
2022/06/27 00:41:33;;;;;;;0.20;0.10;;;17.20;99.90;;;;;;4978518;28;94062;-34
2022/06/27 00:44:00;;;;;;;0.20;0.10;;;17.20;99.90;;;;;;4978637;28;94488;-38
2022/06/27 00:46:27;;;;;;;0.20;0.10;;;17.20;99.90;;;;;;4978983;28;93093;-37
2022/06/27 00:48:52;;;;;;;0.20;0.20;;;17.20;99.90;;;;;;4977467;28;94932;-39
2022/06/27 00:51:18;;;;;;;0.45;0.45;;;17.20;99.90;;;;;;4978551;28;94454;-36
2022/06/27 00:53:44;;;;;;;0.20;0.10;;;17.20;99.90;;;;;;4977872;28;94613;-34
2022/06/27 00:56:10;;;;;;;1.45;0.75;;;17.20;99.90;;;;;;4978923;28;94434;-35
2022/06/27 00:58:36;;;;;;;0.20;0.10;;;17.10;99.90;;;;;;4978292;28;94669;-34
2022/06/27 01:01:02;;;;;;;0.30;0.30;;;17.20;99.90;;;;;;4978391;28;92998;-36
2022/06/27 01:03:28;;;;;;;0.68;0.50;;;17.20;99.90;;;;;;4978408;28;94772;-38
2022/06/27 01:05:54;;;;;;;0.70;0.70;;;17.20;99.90;;;;;;5011795;22;94048;-36
2022/06/27 01:08:25;;;;;;;0.20;0.03;;;17.20;99.90;;;;;;4997647;28;95103;-36
2022/06/27 01:10:51;;;;;;;0.77;0.30;;;17.20;99.90;;;;;;4997804;28;94330;-34
2022/06/27 01:13:17;;;;;;;0.47;0.47;;;17.30;99.90;;;;;;4998151;28;93633;-36
2022/06/27 01:15:43;;;;;;;0.32;0.30;;;17.20;99.90;;;;;;4997048;28;94845;-34
2022/06/27 01:18:10;;;;;;;0.32;0.32;;;17.20;99.90;;;;;;4996854;28;95751;-34
2022/06/27 01:20:36;;;;;;;0.35;0.35;;;17.10;99.90;;;;;;4995762;28;95483;-35
2022/06/27 01:23:01;;;;;;;0.45;0.45;;;17.10;99.90;;;;;;4998483;28;92149;-33
2022/06/27 01:25:27;;;;;;;0.20;0.20;;;17.10;99.90;;;;;;4997739;28;94259;-34
2022/06/27 01:27:53;;;;;;;2.20;2.08;;;17.10;99.90;;;;;;4997578;28;94589;-33
2022/06/27 01:30:20;;;;;;;1.30;1.20;;;17.10;99.90;;;;;;4997418;28;94531;-34
2022/06/27 01:32:45;;;;;;;0.50;0.50;;;17.00;99.90;;;;;;4998008;28;92169;-35
2022/06/27 01:35:11;;;;;;;0.20;0.20;;;17.00;99.90;;;;;;4998343;28;93320;-32
2022/06/27 01:37:37;;;;;;;0.20;0.10;;;17.00;99.90;;;;;;4996211;28;94944;-37
2022/06/27 01:40:03;;;;;;;0.25;0.25;;;17.10;99.90;;;;;;4997380;28;95344;-34
2022/06/27 01:42:29;;;;;;;0.22;0.15;;;17.00;99.90;;;;;;4996989;28;95401;-33
2022/06/27 01:44:54;;;;;;;0.25;0.25;;;17.10;99.90;;;;;;4997332;28;93072;-36
2022/06/27 01:47:20;;;;;;;0.95;0.95;;;17.00;99.90;;;;;;4997675;28;94739;-34
2022/06/27 01:49:46;;;;;;;0.40;0.40;;;17.00;99.90;;;;;;4996341;28;94492;-37
2022/06/27 01:52:14;;;;;;;0.20;0.10;;;17.00;99.90;;;;;;5012362;27;92748;-34
2022/06/27 01:54:40;;;;;;;1.20;1.20;;;17.00;99.90;;;;;;4996681;28;94849;-34
2022/06/27 01:57:08;;;;;;;0.30;0.15;;;17.00;99.90;;;;;;4996925;28;94711;-36
2022/06/27 01:59:34;;;;;;;0.20;0.10;;;17.00;99.90;;;;;;4997764;28;94537;-36
2022/06/27 02:02:01;;;;;;;0.20;0.20;;;17.00;99.90;;;;;;4997612;28;93002;-33
2022/06/27 02:04:29;;;;;;;0.65;0.65;;;17.00;99.90;;;;;;4997247;28;94162;-33
2022/06/27 02:06:54;;;;;;;;;;;17.00;99.90;;;;;;4996480;28;95872;-38
2022/06/27 02:09:21;;;;;;;0.40;0.35;;;17.10;99.90;;;;;;4998511;28;94592;-34
2022/06/27 02:11:49;;;;;;;0.30;0.30;;;17.10;99.90;;;;;;4996535;28;92615;-36
2022/06/27 02:14:15;;;;;;;;;;;17.00;99.90;;;;;;4997076;28;92122;-34
2022/06/27 02:16:42;;;;;;;0.20;0.17;;;17.00;99.90;;;;;;4998831;28;94381;-35
2022/06/27 02:19:09;;;;;;;0.65;0.65;;;17.00;99.90;;;;;;4996355;28;95830;-36
2022/06/27 02:21:35;;;;;;;0.20;0.10;;;17.00;99.90;;;;;;4996304;28;92737;-36
2022/06/27 02:24:01;;;;;;;0.20;0.10;;;17.00;99.90;;;;;;4997615;28;93531;-37
2022/06/27 02:26:29;;;;;;;0.20;0.20;;;17.00;99.90;;;;;;4996441;28;93793;-38
2022/06/27 02:28:56;;;;;;;0.20;0.10;;;17.00;99.90;;;;;;4995585;28;94599;-34
2022/06/27 02:31:23;;;;;;;0.20;0.20;;;17.00;99.90;;;;;;4996464;28;95381;-36
2022/06/27 02:33:50;;;;;;;0.65;0.60;;;17.00;99.90;;;;;;4996748;28;93501;-34
2022/06/27 02:36:18;;;;;;;0.20;0.17;;;17.00;99.90;;;;;;4996176;28;95444;-36
2022/06/27 02:38:46;;;;;;;0.28;0.28;;;17.00;99.90;;;;;;4995416;28;95017;-34
2022/06/27 02:41:17;;;;;;;0.20;0.10;;;17.00;99.90;;;;;;4997167;28;92225;-35
2022/06/27 02:43:47;;;;;;;0.52;0.52;;;16.90;99.90;;;;;;4996448;28;94452;-36
2022/06/27 02:46:13;;;;;;;0.20;0.20;;;16.90;99.90;;;;;;4996080;28;94449;-35
2022/06/27 02:48:40;;;;;;;0.20;0.13;;;16.90;99.90;;;;;;4996737;28;94428;-37
2022/06/27 02:51:09;;;;;;;0.50;0.50;;;16.80;99.90;;;;;;4996664;28;93050;-33
2022/06/27 02:53:57;;;;;;;0.30;0.30;;;16.80;99.90;;;;;;4996439;28;93522;-34
2022/06/27 02:56:26;;;;;;;0.28;0.28;;;16.80;99.90;;;;;;4995901;28;95604;-37
2022/06/27 02:59:02;;;;;;;0.20;0.03;;;16.80;99.90;;;;;;4994891;28;95684;-37
2022/06/27 03:01:29;;;;;;;0.40;0.40;;;16.80;99.90;;;;;;4996608;28;94517;-35
2022/06/27 03:03:59;;;;;;;0.20;0.20;;;16.80;99.90;;;;;;4998173;28;92106;-34
2022/06/27 03:06:25;;;;;;;0.30;0.30;;;16.80;99.90;;;;;;4999736;28;93517;-35
2022/06/27 03:08:51;;;;;;;0.40;0.38;;;16.80;99.90;;;;;;4999322;28;94800;-36
2022/06/27 03:11:20;;;;;;;0.88;0.82;;;16.90;99.90;;;;;;4999565;28;92785;-35
2022/06/27 03:13:46;;;;;;;0.60;0.55;;;16.80;99.90;;;;;;4999734;28;94079;-33
2022/06/27 03:16:13;;;;;;;0.45;0.45;;;16.80;99.90;;;;;;4999917;28;94790;-34
2022/06/27 03:18:39;;;;;;;0.35;0.20;;;16.80;99.90;;;;;;4998997;28;93558;-37
2022/06/27 03:21:04;;;;;;;0.28;0.28;;;16.80;99.90;;;;;;4999958;28;96131;-38
2022/06/27 03:23:31;;;;;;;1.05;1.05;;;16.80;99.90;;;;;;4999215;28;93509;-35
2022/06/27 03:25:56;;;;;;;0.50;0.50;;;16.80;99.90;;;;;;4998763;28;94797;-34
2022/06/27 03:28:23;;;;;;;0.63;0.63;;;16.80;99.90;;;;;;4999410;28;94280;-33
2022/06/27 03:30:49;;;;;;;1.08;0.85;;;16.80;99.90;;;;;;4999892;28;93608;-35
2022/06/27 03:33:14;;;;;;;0.30;0.20;;;16.80;99.90;;;;;;4999550;28;95486;-35
2022/06/27 03:35:41;;;;;;;0.30;0.20;;;16.70;99.90;;;;;;4998621;28;93924;-33
2022/06/27 03:38:07;;;;;;;1.27;1.17;;;16.60;99.90;;;;;;4998483;28;94579;-35
2022/06/27 03:40:33;;;;;;;0.20;0.20;;;16.50;99.90;;;;;;4999448;28;93249;-33
2022/06/27 03:42:58;;;;;;;0.68;0.60;;;16.40;99.90;;;;;;4999238;28;94506;-35
2022/06/27 03:45:24;;;;;;;0.20;0.10;;;16.40;99.90;;;;;;4998186;28;95087;-38
2022/06/27 03:47:52;;;;;;;0.40;0.25;;;16.30;99.90;;;;;;4998539;28;94890;-33
2022/06/27 03:50:19;;;;;;;0.65;0.65;;;16.30;99.90;;;;;;4999480;28;94435;-35
2022/06/27 03:52:45;;;;;;;0.30;0.30;;;16.30;99.90;;;;;;4998216;28;94613;-34
2022/06/27 03:55:12;;;;;;;0.68;0.30;;;16.20;99.90;;;;;;4999686;28;94628;-35
2022/06/27 03:57:54;;;;;;;0.20;0.20;;;16.20;99.90;;;;;;4998361;28;94569;-34
2022/06/27 04:00:22;;;;;;;0.73;0.50;;;16.20;99.90;;;;;;4998920;28;93583;-37
2022/06/27 04:02:48;;;;;;;0.60;0.30;;;16.10;99.90;;;;;;4999175;28;91886;-36
2022/06/27 04:05:14;;;;;;;0.28;0.28;;;16.20;99.90;;;;;;4998670;28;94866;-35
2022/06/27 04:07:40;;;;;;;0.20;0.10;;;16.20;99.90;;;;;;4998606;28;94467;-34
2022/06/27 04:10:10;;;;;;;1.13;0.80;;;16.10;99.90;;;;;;4998501;28;94374;-34
2022/06/27 04:12:36;;;;;;;0.20;0.10;;;16.00;99.90;;;;;;4998281;28;94390;-34
2022/06/27 04:15:03;;;;;;;0.45;0.45;;;16.00;99.90;;;;;;4997935;28;93986;-32
2022/06/27 04:17:29;;;;;;;0.40;0.40;;;16.00;99.90;;;;;;4999156;28;93180;-33
2022/06/27 04:19:55;;;;;;;0.20;0.13;;;16.00;99.90;;;;;;4998723;28;94360;-33
2022/06/27 04:22:21;;;;;;;0.80;0.80;;;16.00;99.90;;;;;;4998492;28;92076;-34
2022/06/27 04:24:47;;;;;;;0.20;0.10;;;16.00;99.90;;;;;;4997896;28;95074;-35
2022/06/27 04:27:16;;;;;;;0.25;0.25;;;16.00;99.90;;;;;;4998581;28;94529;-35
2022/06/27 04:29:42;;;;;;;0.20;0.20;;;16.00;99.90;;;;;;4998230;28;92171;-34
2022/06/27 04:32:09;;;;;;;0.20;0.10;;;16.00;99.90;;;;;;4998908;28;94188;-38
2022/06/27 04:34:39;;;;;;;0.80;0.80;;;16.00;99.90;;;;;;4997806;28;94440;-33
2022/06/27 04:37:04;;;;;;;0.43;0.43;;;16.00;99.90;;;;;;4998238;28;94336;-35
2022/06/27 04:39:30;;;;;;;0.20;0.20;;;16.00;99.90;;;;;;4998212;28;92568;-33
2022/06/27 04:41:57;;;;;;;0.47;0.47;;;16.00;99.90;;;;;;4998858;28;93287;-36
2022/06/27 04:44:23;;;;;;;0.20;0.10;;;15.90;99.90;;;;;;4998531;28;94547;-35
2022/06/27 04:46:49;;;;;;;0.20;0.10;;;16.00;99.90;;;;;;4997568;28;94489;-36
2022/06/27 04:49:16;;;;;;;0.30;0.30;;;15.90;99.90;;;;;;4998332;28;93068;-33
2022/06/27 04:51:43;;;;;;;0.20;0.10;;;15.90;99.90;;;;;;4998062;28;92054;-34
2022/06/27 04:54:10;;;;;;;1.95;1.85;;;15.90;99.90;;;;;;4997729;28;94581;-34
2022/06/27 04:56:42;;;;;;;0.20;0.20;;;15.90;99.90;;;;;;4998311;28;94082;-38
2022/06/27 04:59:09;;;;;;;0.40;0.32;;;15.90;99.90;;;;;;4996945;28;94463;-33
2022/06/27 05:01:35;;;;;;;0.85;0.85;;;15.90;99.90;;;;;;4998206;28;92952;-38
2022/06/27 05:04:00;;;;;;;0.35;0.35;;;15.90;99.90;;;;;;4998038;28;94930;-32
2022/06/27 05:06:26;;;;;;;0.20;0.10;;;15.90;99.90;;;;;;4997347;28;94007;-33
2022/06/27 05:08:52;;;;;;;0.70;0.45;;;15.80;99.90;;;;;;4998199;28;92662;-34
2022/06/27 05:11:17;;;;;;;0.60;0.60;;;15.80;99.90;;;;;;4997586;28;94410;-32
2022/06/27 05:13:43;;;;;;;0.20;0.10;;;15.80;99.90;;;;;;4997406;28;94525;-35
2022/06/27 05:16:08;;;;;;;0.20;0.15;;;15.70;99.90;;;;;;4997784;28;95359;-34
2022/06/27 05:18:34;;;;;;;0.20;0.10;;;15.60;99.90;;;;;;4998805;28;93317;-35
2022/06/27 05:21:00;;;;;;;0.20;0.10;;;15.60;99.90;;;;;;4997556;28;94590;-34
2022/06/27 05:23:25;;;;;;;0.20;0.10;;;15.70;99.90;;;;;;4995821;28;95541;-37
2022/06/27 05:25:51;;;;;;;0.22;0.15;;;15.60;99.90;;;;;;4995456;28;96263;-34
2022/06/27 05:28:17;;;;;;;0.40;0.40;;;15.60;99.90;;;;;;4997808;28;94893;-32
2022/06/27 05:30:42;;;;;;;0.20;0.10;;;15.70;99.90;;;;;;4998104;28;93561;-35
2022/06/27 05:33:08;;;;;;;0.32;0.32;;;15.70;99.90;;;;;;4997159;28;94625;-33
2022/06/27 05:35:34;;;;;;;0.20;0.20;;;15.60;99.90;;;;;;4997102;28;94346;-37
2022/06/27 05:38:00;;;;;;;0.20;0.10;;;15.70;99.90;;;;;;4997411;28;94351;-35
2022/06/27 05:40:25;;;;;;;0.20;0.10;;;15.70;99.90;;;;;;4997558;28;92701;-35
2022/06/27 05:42:53;;;;;;;0.20;0.13;;;15.70;99.90;;;;;;4997316;28;95691;-35
2022/06/27 05:45:19;;;;;;;0.40;0.20;;;15.70;99.90;;;;;;4996880;28;94650;-37
2022/06/27 05:47:45;;;;;;;0.20;0.10;;;15.70;99.90;;;;;;4996053;28;93800;-35
2022/06/27 05:50:11;;;;;;;0.20;0.10;;;15.70;99.90;;;;;;4997204;28;93231;-35
2022/06/27 05:52:39;;;;;;;0.22;0.22;;;15.70;99.90;;;;;;4996598;28;94690;-35
2022/06/27 05:55:08;;;;;;;0.52;0.40;;;15.70;99.90;;;;;;4995856;28;94547;-35
2022/06/27 05:57:35;;;;;;;0.20;0.17;;;15.90;99.90;;;;;;4997451;28;93337;-35
2022/06/27 06:00:02;;;;;;;1.30;0.85;;;15.90;99.90;;;;;;4997305;28;93117;-33
2022/06/27 06:02:27;;;;;;;0.60;0.60;;;15.90;99.90;;;;;;4996581;28;94748;-34
2022/06/27 06:04:53;;;;;;;0.40;0.40;;;16.00;99.90;;;;;;4996843;28;94314;-36
2022/06/27 06:07:21;;;;;;;0.20;0.10;;;16.00;99.90;;;;;;4997372;28;94321;-36
2022/06/27 06:09:46;;;;;;;0.20;0.10;;;16.00;99.90;;;;;;4997009;28;92225;-34
2022/06/27 06:12:12;;;;;;;0.20;0.10;;;16.00;99.90;;;;;;4996250;28;95594;-34
2022/06/27 06:14:38;;;;;;;0.20;0.20;;;16.10;99.90;;;;;;4996400;28;95458;-33
2022/06/27 06:17:05;;;;;;;0.20;0.10;;;16.10;99.90;;;;;;4997322;28;93279;-35
2022/06/27 06:19:31;;;;;;;0.20;0.10;;;16.10;99.90;;;;;;4997269;28;92440;-35
2022/06/27 06:21:57;;;;;;;1.50;0.30;;;16.10;99.90;;;;;;4997210;28;94263;-33
2022/06/27 06:24:24;;;;;;;0.20;0.10;;;16.10;99.90;;;;;;4993329;28;94263;-35
2022/06/27 06:26:52;;;;;;;0.20;0.10;;;16.00;99.90;;;;;;4994024;28;94813;-38
2022/06/27 06:29:18;;;;;;;0.20;0.10;;;16.10;99.90;;;;;;4994935;28;92111;-36
2022/06/27 06:31:45;;;;;;;0.20;0.10;;;16.10;99.90;;;;;;4994169;28;93464;-35
2022/06/27 06:34:14;;;;;;;0.20;0.10;;;16.10;99.90;;;;;;4994337;28;94110;-33
2022/06/27 06:36:40;;;;;;;0.20;0.10;;;16.00;99.90;;;;;;4993961;28;94379;-36
2022/06/27 06:39:07;;;;;;;0.20;0.13;;;16.00;99.90;;;;;;4994447;28;93268;-33
2022/06/27 06:41:35;;;;;;;0.20;0.10;;;16.00;99.90;;;;;;4995194;28;94463;-34
2022/06/27 06:44:02;;;;;;;0.38;0.20;;;16.10;99.90;;;;;;4995131;28;94387;-32
2022/06/27 06:46:28;;;;;;;0.20;0.10;;;16.10;99.90;;;;;;4997236;28;92944;-36
2022/06/27 06:48:57;;;;;;;0.95;0.95;;;16.20;99.90;;;;;;4977702;28;93821;-37
2022/06/27 06:51:24;;;;;;;0.20;0.10;;;16.10;99.90;;;;;;4994983;28;93408;-35
2022/06/27 06:53:50;;;;;;;0.30;0.30;;;16.10;99.90;;;;;;4995954;28;93837;-32
2022/06/27 06:56:16;;;;;;;0.20;0.10;;;16.10;99.90;;;;;;4996634;28;92985;-33
2022/06/27 06:58:42;;;;;;;0.20;0.20;;;16.20;99.90;;;;;;4996012;28;93294;-37
2022/06/27 07:01:08;;;;;;;0.20;0.10;;;16.30;99.90;;;;;;4995380;28;95339;-35
2022/06/27 07:03:34;;;;;;;0.20;0.10;;;16.30;99.90;;;;;;4996158;28;95972;-34
2022/06/27 07:06:02;;;;;;;0.20;0.10;;;16.30;99.90;;;;;;4995699;28;93253;-35
2022/06/27 07:08:28;;;;;;;0.40;0.35;;;16.40;99.90;;;;;;4996180;28;94727;-35
2022/06/27 07:10:54;;;;;;;0.20;0.10;;;16.40;99.90;;;;;;4996278;28;95240;-35
2022/06/27 07:13:20;;;;;;;0.20;0.10;;;16.40;99.90;;;;;;4995588;28;94622;-33
2022/06/27 07:15:46;;;;;;;0.25;0.20;;;16.40;99.90;;;;;;4995923;28;92619;-37
2022/06/27 07:18:13;;;;;;;0.20;0.10;;;16.40;99.90;;;;;;4996106;28;92074;-33
2022/06/27 07:20:39;;;;;;;0.30;0.13;;;16.40;99.90;;;;;;4995463;28;94687;-37
2022/06/27 07:23:06;;;;;;;0.30;0.20;;;16.40;99.90;;;;;;4996443;28;95027;-33
2022/06/27 07:25:34;;;;;;;0.20;0.10;;;16.40;99.90;;;;;;4995787;28;93978;-33
2022/06/27 07:28:00;;;;;;;0.20;0.10;;;16.40;99.90;;;;;;4995649;28;92668;-35
2022/06/27 07:30:25;;;;;;;0.20;0.10;;;16.40;99.90;;;;;;4995831;28;94079;-34
2022/06/27 07:32:51;;;;;;;0.20;0.10;;;16.40;99.90;;;;;;4996132;28;95942;-33
2022/06/27 07:35:17;;;;;;;0.20;0.10;;;16.40;99.90;;;;;;4995725;28;94068;-35
2022/06/27 07:37:48;;;;;;;0.20;0.20;;;16.40;99.90;;;;;;4996157;28;94808;-35
2022/06/27 07:40:18;;;;;;;0.45;0.45;;;16.40;99.90;;;;;;4995745;28;94807;-35
2022/06/27 07:42:44;;;;;;;0.35;0.32;;;16.40;99.90;;;;;;4996072;28;95122;-38
2022/06/27 07:45:13;;;;;;;0.22;0.22;;;16.40;99.90;;;;;;4996182;28;94317;-33
2022/06/27 07:47:38;;;;;;;0.20;0.10;;;16.50;99.90;;;;;;4995868;28;94879;-36
2022/06/27 07:50:05;;;;;;;0.20;0.10;;;16.50;99.90;;;;;;4997099;28;95711;-37
2022/06/27 07:53:11;;;;;;;0.20;0.20;;;16.60;99.90;;;;;;4999288;28;95091;-36
2022/06/27 07:55:18;;;;;;;0.20;0.20;;;16.60;99.90;;;;;;4998409;28;93706;-34
2022/06/27 07:57:46;;;;;;;0.22;0.22;;;16.80;99.90;;;;;;4998127;28;94530;-34
2022/06/27 08:00:13;;;;;;;0.20;0.10;;;16.90;99.90;;;;;;4998888;28;94236;-33
2022/06/27 08:02:38;;;;;;;0.20;0.10;;;17.10;99.90;;;;;;4999089;28;95157;-36
2022/06/27 08:05:05;;;;;;;0.20;0.10;;;17.10;99.90;;;;;;4998752;28;93873;-34
2022/06/27 08:07:31;;;;;;;0.20;0.10;;;17.00;99.90;;;;;;4999061;28;93993;-33
2022/06/27 08:09:57;;;;;;;0.20;0.13;;;17.00;99.90;;;;;;4998731;28;94545;-35
2022/06/27 08:12:23;;;;;;;0.47;0.47;;;17.10;99.90;;;;;;4998319;28;95600;-36
2022/06/27 08:14:49;;;;;;;0.55;0.22;;;17.20;99.90;;;;;;4998236;28;95073;-36
2022/06/27 08:17:15;;;;;;;0.20;0.10;;;17.20;99.90;;;;;;4997905;28;92995;-36
2022/06/27 08:19:41;;;;;;;0.30;0.28;;;17.10;99.90;;;;;;4998370;28;93787;-35
2022/06/27 08:22:06;;;;;;;0.20;0.20;;;17.10;99.90;;;;;;4999410;28;93097;-36
2022/06/27 08:24:32;;;;;;;1.52;1.42;;;17.20;99.90;;;;;;4998230;28;92891;-33
2022/06/27 08:26:59;;;;;;;0.32;0.22;;;17.20;99.90;;;;;;4999105;28;93985;-33
2022/06/27 08:29:27;;;;;;;0.20;0.10;;;17.30;99.90;;;;;;4998197;28;95914;-34
2022/06/27 08:31:52;;;;;;;1.50;1.20;;;17.40;99.90;;;;;;4998365;28;95630;-36
2022/06/27 08:34:21;;;;;;;4.13;2.60;;;17.50;99.90;;;;;;4999704;28;93281;-37
2022/06/27 08:36:46;;;;;;;0.20;0.17;;;17.50;99.90;;;;;;4998035;28;93115;-37
2022/06/27 08:39:18;;;;;;;0.20;0.20;;;17.50;99.90;;;;;;4997215;28;96181;-35
2022/06/27 08:41:46;;;;;;;0.20;0.10;;;17.60;99.90;;;;;;4998112;28;95019;-35
2022/06/27 08:44:12;;;;;;;0.38;0.38;;;17.60;99.90;;;;;;4998376;28;92999;-34
2022/06/27 08:46:38;;;;;;;0.20;0.10;;;17.50;99.90;;;;;;4998141;28;93093;-33
2022/06/27 08:49:05;;;;;;;0.20;0.10;;;17.50;99.90;;;;;;4998012;28;94573;-33
2022/06/27 08:51:32;;;;;;;1.10;0.43;;;17.50;99.90;;;;;;4997859;28;94701;-34
2022/06/27 08:53:58;;;;;;;0.20;0.15;;;17.50;99.90;;;;;;4998691;28;93080;-34
2022/06/27 08:56:24;;;;;;;0.20;0.20;;;17.50;99.90;;;;;;4999042;28;93430;-32
2022/06/27 08:58:51;;;;;;;0.20;0.10;;;17.50;99.90;;;;;;4997535;28;94424;-32
2022/06/27 09:01:19;;;;;;;0.20;0.10;;;17.50;99.90;;;;;;4996385;28;94289;-37
2022/06/27 09:03:58;;;;;;;;;;;17.50;99.90;;;;;;4998605;28;95707;-38
2022/06/27 09:06:24;;;;;;;0.20;0.10;;;17.50;99.90;;;;;;4998973;28;93948;-34
2022/06/27 09:09:06;;;;;;;0.20;0.10;;;17.50;99.90;;;;;;4997788;28;95321;-35
2022/06/27 09:11:35;;;;;;;0.20;0.20;;;17.50;99.90;;;;;;4997685;28;94639;-34
2022/06/27 09:14:02;;;;;;;0.20;0.10;;;17.40;99.90;;;;;;4998755;28;94713;-35
2022/06/27 09:16:28;;;;;;;0.57;0.57;;;17.50;99.90;;;;;;4996866;28;93269;-35
2022/06/27 09:18:55;;;;;;;0.20;0.10;;;17.50;99.90;;;;;;4997158;28;94972;-35
2022/06/27 09:21:21;;;;;;;0.30;0.30;;;17.40;99.90;;;;;;4997424;28;94287;-36
2022/06/27 09:24:01;;;;;;;0.20;0.10;;;17.40;99.90;;;;;;4982561;28;94131;-32
2022/06/27 09:26:38;;;;;;;0.20;0.00;;;17.40;99.90;;;;;;4994371;28;92989;-35
2022/06/27 09:29:06;;;;;;;0.20;0.10;;;17.30;99.90;;;;;;4994294;28;95704;-35
2022/06/27 09:31:45;;;;;;;0.20;0.10;;;17.40;99.90;;;;;;4994213;28;95173;-37
2022/06/27 09:34:18;;;;;;;3.20;0.38;;;17.40;99.90;;;;;;4995944;28;94051;-36
2022/06/27 09:36:49;;;;;;;0.20;0.10;;;17.40;99.90;;;;;;4994599;28;92624;-34
2022/06/27 09:39:24;;;;;;;0.85;0.55;;;17.30;99.90;;;;;;4995578;28;95023;-34
2022/06/27 09:42:09;;;;;;;0.20;0.15;;;17.30;99.90;;;;;;4994987;28;94258;-37
2022/06/27 09:44:38;;;;;;;0.20;0.20;;;17.40;99.90;;;;;;4995927;28;93497;-35
2022/06/27 09:47:20;;;;;;;0.20;0.20;;;17.50;99.90;;;;;;4995844;28;91995;-33
2022/06/27 09:49:52;;;;;;;0.20;0.10;;;17.50;99.90;;;;;;4994223;28;94958;-36
2022/06/27 09:52:23;;;;;;;0.22;0.13;;;17.50;99.90;;;;;;4994249;28;94365;-35
2022/06/27 09:54:51;;;;;;;0.20;0.20;;;17.50;99.90;;;;;;4994717;28;95651;-34
2022/06/27 09:57:19;;;;;;;0.20;0.00;;;17.50;99.90;;;;;;4995002;28;92175;-37
2022/06/27 09:59:47;;;;;;;0.20;0.10;;;17.60;99.90;;;;;;4984988;28;94776;-33
2022/06/27 10:02:16;;;;;;;0.20;0.10;;;17.60;99.90;;;;;;4995348;28;94529;-34
2022/06/27 10:04:46;;;;;;;0.20;0.20;;;17.60;99.90;;;;;;4995274;28;94553;-38
2022/06/27 10:07:15;;;;;;;0.20;0.10;;;17.70;99.90;;;;;;4995122;28;93686;-34
2022/06/27 10:09:42;;;;;;;0.20;0.10;;;17.70;99.90;;;;;;4994229;28;95173;-33
2022/06/27 10:12:27;;;;;;;0.20;0.10;;;17.60;99.90;;;;;;4994429;28;94348;-36
2022/06/27 10:15:10;;;;;;;0.20;0.10;;;17.60;99.90;;;;;;4995075;28;94799;-32
2022/06/27 10:17:37;;;;;;;0.32;0.25;;;17.80;99.90;;;;;;4994702;28;93002;-35
2022/06/27 10:20:10;;;;;;;0.25;0.25;;;17.90;99.90;;;;;;4993457;28;95295;-36
2022/06/27 10:22:35;;;;;;;0.73;0.52;;;17.80;99.90;;;;;;4994101;28;95405;-34
2022/06/27 10:25:26;;;;;;;1.17;0.70;;;17.80;99.90;;;;;;4995070;28;93432;-35
2022/06/27 10:28:07;;;;;;;0.20;0.13;;;17.90;99.90;;;;;;4995384;28;93750;-35
2022/06/27 10:30:51;;;;;;;0.20;0.10;;;17.90;99.90;;;;;;4994849;28;94278;-34
2022/06/27 10:33:26;;;;;;;0.63;0.63;;;17.90;99.90;;;;;;4994597;28;94554;-35
2022/06/27 10:36:10;;;;;;;0.20;0.15;;;18.00;99.90;;;;;;4994610;28;93394;-36
2022/06/27 10:38:38;;;;;;;0.20;0.10;;;18.00;99.90;;;;;;4994132;28;92418;-36
2022/06/27 10:41:06;;;;;;;0.20;0.20;;;18.00;99.90;;;;;;4992749;28;94846;-35
2022/06/27 10:43:39;;;;;;;0.25;0.20;;;18.00;99.90;;;;;;4993734;28;95224;-37
2022/06/27 10:46:13;;;;;;;0.50;0.50;;;18.00;99.90;;;;;;4994306;28;95142;-35
2022/06/27 10:48:40;;;;;;;0.40;0.30;;;18.10;99.90;;;;;;4994340;28;94304;-38
2022/06/27 10:51:27;;;;;;;0.35;0.35;;;18.20;99.90;;;;;;4994078;28;94606;-34
2022/06/27 10:53:59;;;;;;;0.20;0.10;;;18.20;99.90;;;;;;4994182;28;94811;-34
2022/06/27 10:56:44;;;;;;;1.60;0.60;;;18.20;99.90;;;;;;4994587;28;93331;-34
2022/06/27 10:59:15;;;;;;;0.20;0.00;;;18.10;99.90;;;;;;4994206;28;93104;-34
2022/06/27 11:01:50;;;;;;;0.35;0.32;;;18.20;99.90;;;;;;4994011;28;94653;-34
2022/06/27 11:04:30;;;;;;;0.20;0.20;;;18.20;99.90;;;;;;4994271;28;93663;-34
2022/06/27 11:06:59;;;;;;;0.28;0.17;;;18.20;99.90;;;;;;4992942;28;93462;-34
2022/06/27 11:09:47;;;;;;;0.40;0.30;;;18.20;99.90;;;;;;4993392;28;94548;-33
2022/06/27 11:12:16;;;;;;;0.20;0.10;;;18.20;99.90;;;;;;4993238;28;95857;-37
2022/06/27 11:14:54;;;;;;;0.20;0.10;;;18.30;99.90;;;;;;4993605;28;94879;-38
2022/06/27 11:17:37;;;;;;;0.20;0.10;;;18.30;99.90;;;;;;4994761;28;93438;-36
2022/06/27 11:20:26;;;;;;;0.35;0.35;;;18.40;99.90;;;;;;4993306;28;94244;-37
2022/06/27 11:22:59;;;;;;;0.20;0.10;;;18.50;99.90;;;;;;4987565;28;95278;-34
2022/06/27 11:25:27;;;;;;;0.20;0.00;;;18.50;99.90;;;;;;4997012;28;95753;-34
2022/06/27 11:31:57;;;;;;;0.20;0.15;;;18.50;99.90;;;;;;4998313;28;93718;-34
2022/06/27 11:33:35;;;;;;;0.35;0.35;;;18.70;99.90;;;;;;4996788;28;95118;-35
2022/06/27 11:36:02;;;;;;;0.20;0.10;;;18.80;99.90;;;;;;4997359;28;94578;-38
2022/06/27 11:38:40;;;;;;;0.20;0.10;;;18.80;99.90;;;;;;4997560;28;94285;-34
2022/06/27 11:41:08;;;;;;;0.32;0.20;;;18.80;99.90;;;;;;4995194;28;93115;-37
2022/06/27 11:43:56;;;;;;;0.20;0.03;;;18.80;99.90;;;;;;4996799;28;94836;-34
2022/06/27 11:46:45;;;;;;;0.32;0.25;;;18.80;99.90;;;;;;4996529;28;94704;-36
2022/06/27 11:49:27;;;;;;;0.20;0.10;;;18.80;99.90;;;;;;4996953;28;92792;-35
2022/06/27 11:51:58;;;;;;;0.20;0.00;;;18.70;99.90;;;;;;4997246;28;94301;-33
2022/06/27 11:54:24;;;;;;;0.20;0.00;;;18.80;99.90;;;;;;4997265;28;95431;-36
2022/06/27 11:56:52;;;;;;;0.20;0.10;;;18.80;99.90;;;;;;4997157;28;96264;-35
2022/06/27 11:59:19;;;;;;;0.20;0.00;;;18.80;99.90;;;;;;4996552;28;92739;-36
2022/06/27 12:02:03;;;;;;;0.20;0.00;;;18.90;99.90;;;;;;4996769;28;92382;-35
2022/06/27 12:04:33;;;;;;;0.28;0.28;;;19.00;99.90;;;;;;4996577;28;95693;-35
2022/06/27 12:07:05;;;;;;;0.45;0.45;;;19.00;99.90;;;;;;4996606;28;95877;-36
2022/06/27 12:09:31;;;;;;;4.47;0.80;;;18.80;99.90;;;;;;4997116;28;94587;-37
2022/06/27 12:12:04;;;;;;;0.20;0.00;;;18.60;99.90;;;;;;4996121;28;92639;-34
2022/06/27 12:14:42;;;;;;;0.22;0.22;;;18.60;99.90;;;;;;4996885;28;95643;-33
2022/06/27 12:17:07;;;;;;;0.25;0.25;;;18.60;99.90;;;;;;4996636;28;94405;-36
2022/06/27 12:19:33;;;;;;;0.20;0.10;;;18.70;99.90;;;;;;4996951;28;93585;-36
2022/06/27 12:21:59;;;;;;;0.52;0.30;;;18.70;99.90;;;;;;4996764;28;92109;-35
2022/06/27 12:24:25;;;;;;;0.77;0.47;;;18.70;99.90;;;;;;4996191;28;96503;-35
2022/06/27 12:26:51;;;;;;;0.40;0.30;;;18.70;99.90;;;;;;4995403;28;94576;-38
2022/06/27 12:29:17;;;;;;;0.25;0.25;;;18.80;99.90;;;;;;4996727;28;95479;-33
2022/06/27 12:31:42;;;;;;;0.20;0.10;;;18.80;99.90;;;;;;4996122;28;92211;-37
2022/06/27 12:34:08;;;;;;;0.32;0.22;;;18.70;99.90;;;;;;4996329;28;94353;-35
2022/06/27 12:36:34;;;;;;;0.20;0.10;;;18.70;99.90;;;;;;4995686;28;94921;-39
2022/06/27 12:39:01;;;;;;;0.20;0.08;;;18.60;99.90;;;;;;4996482;28;93412;-38
2022/06/27 12:41:27;;;;;;;0.20;0.05;;;18.60;99.90;;;;;;4996396;28;94072;-34
2022/06/27 12:43:53;;;;;;;0.20;0.00;;;18.60;99.90;;;;;;4995999;28;94033;-38
2022/06/27 12:46:19;;;;;;;0.50;0.50;;;18.60;99.90;;;;;;4996454;28;94055;-38
2022/06/27 12:48:47;;;;;;;0.20;0.10;;;18.60;99.90;;;;;;4995251;28;94871;-33
2022/06/27 12:51:13;;;;;;;0.47;0.40;;;18.60;99.90;;;;;;4995490;28;93329;-36
2022/06/27 12:53:39;;;;;;;0.20;0.10;;;18.60;99.90;;;;;;4994297;28;97063;-37
2022/06/27 12:56:05;;;;;;;0.20;0.20;;;18.50;99.90;;;;;;4995936;28;95375;-34